createdAt,value
2022-08-23T00:00:31.817Z,287.00
2022-08-23T00:01:31.795Z,389.80
2022-08-23T00:02:31.795Z,373.30
2022-08-23T00:03:31.760Z,275.10
2022-08-23T00:04:34.715Z,233.00
2022-08-23T00:05:31.749Z,266.40
2022-08-23T00:06:31.723Z,247.80
2022-08-23T00:07:35.173Z,283.70
2022-08-23T00:08:32.720Z,273.60
2022-08-23T00:09:31.766Z,225.50
2022-08-23T00:10:31.685Z,295.90
2022-08-23T00:11:31.668Z,241.10
2022-08-23T00:12:31.690Z,309.80
2022-08-23T00:13:48.005Z,252.00
2022-08-23T00:14:32.707Z,243.70
2022-08-23T00:15:31.631Z,224.50
2022-08-23T00:16:31.623Z,264.20
2022-08-23T00:17:34.691Z,183.80
2022-08-23T00:18:31.592Z,250.70
2022-08-23T00:19:31.620Z,220.60
2022-08-23T00:20:31.572Z,311.70
2022-08-23T00:21:31.563Z,239.90
2022-08-23T00:22:31.561Z,260.10
2022-08-23T00:23:31.534Z,247.00
2022-08-23T00:24:31.577Z,274.70
2022-08-23T00:25:31.514Z,324.80
2022-08-23T00:26:31.484Z,279.40
2022-08-23T00:27:31.478Z,313.50
2022-08-23T00:28:31.507Z,281.60
2022-08-23T00:29:31.502Z,186.90
2022-08-23T00:30:31.458Z,211.70
2022-08-23T00:31:31.480Z,241.40
2022-08-23T00:32:31.456Z,266.70
2022-08-23T00:33:31.421Z,220.40
2022-08-23T00:34:31.476Z,339.80
2022-08-23T00:35:31.413Z,323.50
2022-08-23T00:36:31.405Z,333.50
2022-08-23T00:37:31.379Z,316.60
2022-08-23T00:38:34.537Z,269.00
2022-08-23T00:39:31.400Z,236.70
2022-08-23T00:40:31.357Z,233.80
2022-08-23T00:41:31.343Z,231.10
2022-08-23T00:42:31.341Z,175.80
2022-08-23T00:43:31.307Z,211.00
2022-08-23T00:44:31.353Z,208.00
2022-08-23T00:45:31.291Z,309.60
2022-08-23T00:46:31.270Z,323.90
2022-08-23T00:47:31.267Z,305.30
2022-08-23T00:48:31.256Z,212.90
2022-08-23T00:49:31.287Z,223.60
2022-08-23T00:50:31.237Z,216.70
2022-08-23T00:51:31.231Z,220.70
2022-08-23T00:52:32.206Z,194.00
2022-08-23T00:53:31.190Z,288.20
2022-08-23T00:54:31.222Z,193.30
2022-08-23T00:55:31.145Z,214.30
2022-08-23T00:56:31.155Z,282.50
2022-08-23T00:57:31.126Z,188.10
2022-08-23T00:58:31.143Z,175.90
2022-08-23T00:59:31.188Z,234.30
2022-08-23T01:00:31.137Z,169.40
2022-08-23T01:01:31.147Z,166.90
2022-08-23T01:02:31.087Z,267.20
2022-08-23T01:03:38.390Z,281.10
2022-08-23T01:04:32.157Z,237.50
2022-08-23T01:05:31.069Z,210.10
2022-08-23T01:06:31.060Z,178.50
2022-08-23T01:07:31.071Z,187.80
2022-08-23T01:08:31.039Z,165.60
2022-08-23T01:09:31.062Z,194.60
2022-08-23T01:10:31.009Z,172.90
2022-08-23T01:11:31.006Z,167.10
2022-08-23T01:12:32.504Z,268.40
2022-08-23T01:13:30.959Z,275.50
2022-08-23T01:14:30.996Z,234.90
2022-08-23T01:15:30.943Z,168.40
2022-08-23T01:16:30.955Z,273.80
2022-08-23T01:17:30.944Z,283.20
2022-08-23T01:18:30.940Z,261.80
2022-08-23T01:19:31.647Z,285.90
2022-08-23T01:20:30.894Z,254.00
2022-08-23T01:21:30.885Z,200.30
2022-08-23T01:22:30.868Z,196.70
2022-08-23T01:23:30.863Z,252.50
2022-08-23T01:24:42.593Z,264.20
2022-08-23T01:25:31.846Z,227.90
2022-08-23T01:26:30.821Z,219.20
2022-08-23T01:27:31.464Z,270.10
2022-08-23T01:28:30.818Z,240.80
2022-08-23T01:29:30.869Z,215.10
2022-08-23T01:30:30.798Z,211.40
2022-08-23T01:31:30.769Z,191.00
2022-08-23T01:32:30.751Z,169.40
2022-08-23T01:33:30.738Z,174.00
2022-08-23T01:34:30.777Z,170.30
2022-08-23T01:35:30.732Z,259.80
2022-08-23T01:36:30.699Z,257.30
2022-08-23T01:37:30.702Z,255.00
2022-08-23T01:38:32.888Z,205.70
2022-08-23T01:39:30.717Z,174.20
2022-08-23T01:40:30.674Z,200.20
2022-08-23T01:41:30.675Z,232.70
2022-08-23T01:42:30.656Z,254.70
2022-08-23T01:43:30.636Z,255.80
2022-08-23T01:44:30.668Z,184.00
2022-08-23T01:45:30.599Z,196.80
2022-08-23T01:46:30.619Z,231.80
2022-08-23T01:47:30.606Z,187.60
2022-08-23T01:48:30.589Z,162.70
2022-08-23T01:49:30.629Z,178.50
2022-08-23T01:50:30.608Z,220.20
2022-08-23T01:51:30.546Z,195.90
2022-08-23T01:52:30.542Z,185.20
2022-08-23T01:53:30.534Z,192.30
2022-08-23T01:54:30.545Z,250.00
2022-08-23T01:55:30.487Z,246.00
2022-08-23T01:56:39.245Z,233.80
2022-08-23T01:57:31.454Z,179.90
2022-08-23T01:58:30.498Z,169.10
2022-08-23T01:59:30.519Z,177.00
2022-08-23T02:00:30.454Z,199.40
2022-08-23T02:01:30.446Z,224.00
2022-08-23T02:02:30.426Z,201.60
2022-08-23T02:03:30.402Z,236.10
2022-08-23T02:04:30.478Z,221.40
2022-08-23T02:05:30.411Z,226.70
2022-08-23T02:06:30.365Z,173.90
2022-08-23T02:07:30.373Z,185.40
2022-08-23T02:08:30.367Z,225.60
2022-08-23T02:09:30.403Z,223.10
2022-08-23T02:10:30.324Z,226.10
2022-08-23T02:11:30.328Z,182.20
2022-08-23T02:12:30.304Z,195.00
2022-08-23T02:13:30.323Z,177.10
2022-08-23T02:14:30.363Z,207.00
2022-08-23T02:15:30.290Z,224.40
2022-08-23T02:16:30.272Z,217.20
2022-08-23T02:17:30.273Z,193.20
2022-08-23T02:18:30.254Z,209.30
2022-08-23T02:19:30.299Z,168.80
2022-08-23T02:20:30.248Z,177.30
2022-08-23T02:21:30.215Z,183.00
2022-08-23T02:22:30.211Z,171.00
2022-08-23T02:23:30.185Z,197.70
2022-08-23T02:24:30.213Z,226.50
2022-08-23T02:25:30.154Z,174.00
2022-08-23T02:26:31.080Z,187.50
2022-08-23T02:27:30.162Z,212.20
2022-08-23T02:28:30.140Z,232.50
2022-08-23T02:29:30.172Z,213.90
2022-08-23T02:30:30.135Z,180.20
2022-08-23T02:31:30.125Z,186.50
2022-08-23T02:32:30.103Z,226.10
2022-08-23T02:33:30.097Z,229.00
2022-08-23T02:34:44.945Z,183.10
2022-08-23T02:35:31.126Z,185.30
2022-08-23T02:36:30.102Z,181.40
2022-08-23T02:37:30.096Z,194.80
2022-08-23T02:38:30.090Z,235.90
2022-08-23T02:39:30.144Z,233.60
2022-08-23T02:40:30.063Z,229.90
2022-08-23T02:41:30.057Z,225.00
2022-08-23T02:42:30.058Z,184.70
2022-08-23T02:43:30.051Z,184.00
2022-08-23T02:44:30.066Z,186.60
2022-08-23T02:45:30.012Z,229.60
2022-08-23T02:46:30.014Z,232.20
2022-08-23T02:47:30.006Z,181.00
2022-08-23T02:48:29.987Z,179.80
2022-08-23T02:49:30.009Z,175.70
2022-08-23T02:50:29.961Z,191.30
2022-08-23T02:51:29.955Z,223.80
2022-08-23T02:52:29.928Z,194.90
2022-08-23T02:53:29.921Z,175.80
2022-08-23T02:54:29.954Z,178.50
2022-08-23T02:55:29.884Z,198.00
2022-08-23T02:56:29.883Z,201.90
2022-08-23T02:57:29.905Z,185.90
2022-08-23T02:58:29.875Z,192.80
2022-08-23T02:59:29.909Z,219.60
2022-08-23T03:00:29.856Z,184.20
2022-08-23T03:01:29.843Z,208.30
2022-08-23T03:02:29.907Z,219.50
2022-08-23T03:03:29.805Z,206.90
2022-08-23T03:04:29.835Z,182.90
2022-08-23T03:05:29.796Z,195.30
2022-08-23T03:06:29.794Z,198.50
2022-08-23T03:07:29.770Z,189.40
2022-08-23T03:08:29.742Z,195.40
2022-08-23T03:09:29.772Z,188.70
2022-08-23T03:10:29.740Z,231.60
2022-08-23T03:11:29.722Z,223.20
2022-08-23T03:12:29.722Z,195.70
2022-08-23T03:13:29.679Z,193.90
2022-08-23T03:14:29.769Z,209.90
2022-08-23T03:15:29.674Z,229.80
2022-08-23T03:16:29.682Z,192.30
2022-08-23T03:17:29.650Z,200.30
2022-08-23T03:18:29.650Z,230.00
2022-08-23T03:19:29.618Z,222.90
2022-08-23T03:20:29.650Z,188.70
2022-08-23T03:21:29.596Z,193.70
2022-08-23T03:22:29.601Z,192.10
2022-08-23T03:23:29.573Z,197.30
2022-08-23T03:24:29.555Z,230.90
2022-08-23T03:25:29.580Z,186.00
2022-08-23T03:26:29.561Z,195.50
2022-08-23T03:27:29.534Z,215.70
2022-08-23T03:28:29.559Z,207.00
2022-08-23T03:29:29.528Z,183.60
2022-08-23T03:30:29.501Z,192.70
2022-08-23T03:31:29.436Z,195.40
2022-08-23T03:32:29.435Z,232.60
2022-08-23T03:33:29.425Z,220.90
2022-08-23T03:34:29.407Z,223.60
2022-08-23T03:35:29.443Z,197.20
2022-08-23T03:36:29.437Z,222.30
2022-08-23T03:37:29.419Z,246.20
2022-08-23T03:38:29.361Z,210.80
2022-08-23T03:39:29.352Z,183.70
2022-08-23T03:40:29.393Z,203.70
2022-08-23T03:41:29.336Z,226.60
2022-08-23T03:42:31.260Z,202.30
2022-08-23T03:43:29.285Z,234.70
2022-08-23T03:44:29.292Z,229.30
2022-08-23T03:45:29.323Z,217.00
2022-08-23T03:46:33.788Z,199.10
2022-08-23T03:47:30.258Z,210.60
2022-08-23T03:48:29.345Z,243.90
2022-08-23T03:49:29.239Z,233.90
2022-08-23T03:50:29.256Z,223.90
2022-08-23T03:51:29.223Z,179.80
2022-08-23T03:52:29.182Z,191.20
2022-08-23T03:53:29.176Z,218.10
2022-08-23T03:54:29.174Z,242.00
2022-08-23T03:55:29.190Z,203.40
2022-08-23T03:56:29.155Z,206.80
2022-08-23T03:57:29.173Z,206.00
2022-08-23T03:58:29.132Z,210.10
2022-08-23T03:59:29.145Z,195.40
2022-08-23T04:00:29.144Z,202.30
2022-08-23T04:01:29.162Z,251.00
2022-08-23T04:02:29.088Z,240.90
2022-08-23T04:03:29.071Z,201.00
2022-08-23T04:04:29.070Z,214.90
2022-08-23T04:05:29.114Z,241.60
2022-08-23T04:06:29.030Z,198.60
2022-08-23T04:07:29.052Z,218.70
2022-08-23T04:08:33.450Z,190.60
2022-08-23T04:09:29.020Z,192.00
2022-08-23T04:10:29.041Z,213.40
2022-08-23T04:11:29.003Z,222.50
2022-08-23T04:12:28.966Z,200.40
2022-08-23T04:13:28.967Z,210.20
2022-08-23T04:14:28.953Z,232.10
2022-08-23T04:15:28.993Z,202.20
2022-08-23T04:16:28.928Z,203.90
2022-08-23T04:17:32.147Z,219.90
2022-08-23T04:18:28.901Z,241.70
2022-08-23T04:19:28.892Z,227.30
2022-08-23T04:20:28.933Z,252.40
2022-08-23T04:21:28.885Z,259.10
2022-08-23T04:22:28.854Z,234.50
2022-08-23T04:23:28.839Z,239.90
2022-08-23T04:24:28.821Z,234.40
2022-08-23T04:25:34.382Z,228.20
2022-08-23T04:26:30.403Z,218.90
2022-08-23T04:27:28.791Z,232.60
2022-08-23T04:28:28.781Z,200.90
2022-08-23T04:29:34.035Z,217.80
2022-08-23T04:30:29.823Z,221.10
2022-08-23T04:31:28.761Z,238.30
2022-08-23T04:32:29.750Z,208.40
2022-08-23T04:33:28.736Z,220.50
2022-08-23T04:34:28.857Z,209.20
2022-08-23T04:35:28.781Z,176.80
2022-08-23T04:36:28.686Z,186.90
2022-08-23T04:37:29.720Z,180.80
2022-08-23T04:38:28.669Z,160.90
2022-08-23T04:39:28.678Z,128.10
2022-08-23T04:40:28.779Z,178.20
2022-08-23T04:41:28.644Z,183.80
2022-08-23T04:42:28.629Z,209.00
2022-08-23T04:43:28.650Z,195.80
2022-08-23T04:44:28.619Z,203.30
2022-08-23T04:45:28.676Z,191.40
2022-08-23T04:46:28.566Z,204.30
2022-08-23T04:47:28.571Z,202.50
2022-08-23T04:48:28.884Z,169.60
2022-08-23T04:49:28.567Z,137.80
2022-08-23T04:50:28.630Z,131.50
2022-08-23T04:51:28.512Z,184.80
2022-08-23T04:52:28.507Z,187.40
2022-08-23T04:53:28.491Z,205.70
2022-08-23T04:54:28.459Z,197.20
2022-08-23T04:55:28.519Z,184.60
2022-08-23T04:56:28.454Z,192.00
2022-08-23T04:57:28.467Z,161.50
2022-08-23T04:58:28.433Z,157.30
2022-08-23T04:59:28.451Z,124.30
2022-08-23T05:00:28.538Z,163.80
2022-08-23T05:01:28.444Z,194.00
2022-08-23T05:02:28.399Z,187.80
2022-08-23T05:03:28.381Z,210.40
2022-08-23T05:04:28.360Z,155.30
2022-08-23T05:05:28.393Z,166.50
2022-08-23T05:06:28.338Z,182.30
2022-08-23T05:07:40.058Z,176.90
2022-08-23T05:08:29.332Z,154.00
2022-08-23T05:09:28.347Z,160.40
2022-08-23T05:10:28.348Z,126.30
2022-08-23T05:11:28.296Z,179.20
2022-08-23T05:12:28.283Z,215.90
2022-08-23T05:13:28.271Z,214.60
2022-08-23T05:14:28.252Z,117.30
2022-08-23T05:15:28.303Z,167.20
2022-08-23T05:16:28.224Z,206.10
2022-08-23T05:17:28.209Z,229.50
2022-08-23T05:18:28.202Z,177.20
2022-08-23T05:19:28.210Z,184.40
2022-08-23T05:20:28.221Z,216.50
2022-08-23T05:21:28.152Z,129.50
2022-08-23T05:22:28.142Z,202.40
2022-08-23T05:23:31.847Z,191.60
2022-08-23T05:24:28.139Z,195.90
2022-08-23T05:25:28.169Z,176.00
2022-08-23T05:26:28.101Z,172.20
2022-08-23T05:27:28.086Z,166.50
2022-08-23T05:28:28.431Z,140.70
2022-08-23T05:29:28.094Z,136.30
2022-08-23T05:30:28.115Z,166.10
2022-08-23T05:31:28.090Z,173.00
2022-08-23T05:32:31.620Z,189.30
2022-08-23T05:33:29.017Z,217.00
2022-08-23T05:34:28.013Z,147.40
2022-08-23T05:35:28.049Z,183.70
2022-08-23T05:36:27.992Z,262.30
2022-08-23T05:37:27.972Z,230.70
2022-08-23T05:38:27.941Z,245.10
2022-08-23T05:39:36.577Z,257.60
2022-08-23T05:40:28.987Z,267.00
2022-08-23T05:41:38.244Z,236.60
2022-08-23T05:42:28.915Z,202.50
2022-08-23T05:43:27.898Z,203.00
2022-08-23T05:44:27.922Z,193.50
2022-08-23T05:45:27.933Z,282.40
2022-08-23T05:46:28.534Z,250.40
2022-08-23T05:47:27.856Z,288.50
2022-08-23T05:48:27.831Z,276.70
2022-08-23T05:49:27.832Z,162.00
2022-08-23T05:50:27.842Z,115.60
2022-08-23T05:51:27.785Z,68.20
2022-08-23T05:52:27.772Z,157.00
2022-08-23T05:53:27.781Z,282.80
2022-08-23T05:54:27.783Z,206.60
2022-08-23T05:55:34.989Z,113.80
2022-08-23T05:56:28.750Z,159.40
2022-08-23T05:57:27.741Z,189.70
2022-08-23T05:58:27.745Z,183.00
2022-08-23T05:59:27.707Z,239.00
2022-08-23T06:00:31.630Z,92.30
2022-08-23T06:01:28.730Z,166.90
2022-08-23T06:02:27.659Z,63.30
2022-08-23T06:03:27.665Z,246.70
2022-08-23T06:04:27.652Z,84.90
2022-08-23T06:05:27.697Z,107.80
2022-08-23T06:06:36.869Z,106.70
2022-08-23T06:07:28.640Z,97.00
2022-08-23T06:08:27.625Z,77.00
2022-08-23T06:09:27.617Z,84.40
2022-08-23T06:10:27.686Z,179.70
2022-08-23T06:11:27.586Z,194.90
2022-08-23T06:12:27.613Z,187.10
2022-08-23T06:13:27.564Z,153.40
2022-08-23T06:14:27.604Z,127.60
2022-08-23T06:15:27.596Z,101.90
2022-08-23T06:16:27.537Z,129.60
2022-08-23T06:17:27.527Z,142.80
2022-08-23T06:18:27.506Z,128.30
2022-08-23T06:19:27.477Z,127.20
2022-08-23T06:20:27.582Z,135.60
2022-08-23T06:21:27.436Z,139.80
2022-08-23T06:22:27.433Z,128.60
2022-08-23T06:23:27.422Z,102.30
2022-08-23T06:24:27.456Z,83.50
2022-08-23T06:25:27.476Z,89.30
2022-08-23T06:26:27.442Z,71.00
2022-08-23T06:27:27.385Z,84.20
2022-08-23T06:28:27.447Z,92.80
2022-08-23T06:29:27.437Z,85.60
2022-08-23T06:30:27.529Z,112.00
2022-08-23T06:31:27.416Z,107.40
2022-08-23T06:32:28.399Z,73.40
2022-08-23T06:33:27.418Z,72.60
2022-08-23T06:34:27.322Z,98.50
2022-08-23T06:35:37.977Z,62.20
2022-08-23T06:36:28.332Z,67.60
2022-08-23T06:37:27.292Z,76.80
2022-08-23T06:38:27.639Z,42.40
2022-08-23T06:39:27.265Z,71.50
2022-08-23T06:40:27.381Z,58.60
2022-08-23T06:41:27.237Z,56.30
2022-08-23T06:42:42.519Z,74.90
2022-08-23T06:43:28.221Z,60.40
2022-08-23T06:44:27.207Z,68.00
2022-08-23T06:45:33.758Z,75.00
2022-08-23T06:46:28.376Z,72.40
2022-08-23T06:47:27.149Z,83.90
2022-08-23T06:48:27.135Z,76.30
2022-08-23T06:49:27.124Z,71.30
2022-08-23T06:50:27.168Z,77.90
2022-08-23T06:51:28.100Z,87.20
2022-08-23T06:52:27.104Z,87.40
2022-08-23T06:53:27.089Z,82.10
2022-08-23T06:54:27.088Z,87.50
2022-08-23T06:55:27.145Z,76.30
2022-08-23T06:56:27.102Z,95.80
2022-08-23T06:57:27.057Z,81.40
2022-08-23T06:58:27.078Z,71.70
2022-08-23T06:59:27.059Z,77.80
2022-08-23T07:00:27.103Z,67.10
2022-08-23T07:01:44.643Z,57.00
2022-08-23T07:02:28.072Z,61.60
2022-08-23T07:03:27.001Z,86.50
2022-08-23T07:04:26.978Z,56.20
2022-08-23T07:05:27.051Z,47.00
2022-08-23T07:06:26.956Z,57.10
2022-08-23T07:07:41.218Z,57.50
2022-08-23T07:08:27.940Z,47.60
2022-08-23T07:09:26.927Z,59.80
2022-08-23T07:10:26.949Z,69.20
2022-08-23T07:11:26.897Z,58.70
2022-08-23T07:12:26.871Z,48.30
2022-08-23T07:13:26.860Z,51.10
2022-08-23T07:14:26.867Z,55.50
2022-08-23T07:15:26.875Z,51.50
2022-08-23T07:16:26.895Z,52.00
2022-08-23T07:17:26.834Z,51.50
2022-08-23T07:18:26.796Z,45.70
2022-08-23T07:19:29.185Z,47.40
2022-08-23T07:20:26.822Z,45.90
2022-08-23T07:21:26.779Z,43.80
2022-08-23T07:22:26.783Z,44.20
2022-08-23T07:23:26.755Z,42.60
2022-08-23T07:24:30.774Z,47.70
2022-08-23T07:25:27.760Z,52.90
2022-08-23T07:26:26.703Z,48.20
2022-08-23T07:27:26.707Z,46.40
2022-08-23T07:28:26.697Z,40.20
2022-08-23T07:29:26.695Z,45.30
2022-08-23T07:30:26.704Z,44.90
2022-08-23T07:31:26.733Z,41.40
2022-08-23T07:32:26.675Z,41.90
2022-08-23T07:33:26.636Z,37.10
2022-08-23T07:34:26.648Z,42.90
2022-08-23T07:35:26.698Z,40.80
2022-08-23T07:36:27.932Z,50.80
2022-08-23T07:37:26.594Z,65.10
2022-08-23T07:38:30.528Z,33.90
2022-08-23T07:39:26.594Z,49.80
2022-08-23T07:40:27.766Z,69.50
2022-08-23T07:41:26.561Z,70.70
2022-08-23T07:42:26.544Z,60.60
2022-08-23T07:43:26.540Z,129.50
2022-08-23T07:44:27.360Z,56.60
2022-08-23T07:45:26.574Z,79.50
2022-08-23T07:46:26.549Z,41.00
2022-08-23T07:47:26.470Z,143.80
2022-08-23T07:48:43.560Z,66.30
2022-08-23T07:49:29.272Z,44.80
2022-08-23T07:50:30.368Z,44.80
2022-08-23T07:51:26.450Z,40.80
2022-08-23T07:52:26.448Z,47.60
2022-08-23T07:53:31.812Z,44.10
2022-08-23T07:54:27.442Z,38.00
2022-08-23T07:55:26.426Z,41.40
2022-08-23T07:56:26.387Z,32.50
2022-08-23T07:57:26.380Z,35.10
2022-08-23T07:58:26.368Z,55.40
2022-08-23T07:59:26.368Z,52.90
2022-08-23T08:00:26.396Z,32.40
2022-08-23T08:01:26.333Z,34.90
2022-08-23T08:02:26.361Z,17.80
2022-08-23T08:03:26.315Z,24.30
2022-08-23T08:04:26.282Z,22.50
2022-08-23T08:05:26.329Z,25.60
2022-08-23T08:06:26.281Z,23.20
2022-08-23T08:07:26.266Z,22.60
2022-08-23T08:08:26.274Z,26.80
2022-08-23T08:09:26.243Z,24.80
2022-08-23T08:10:26.246Z,26.90
2022-08-23T08:11:29.593Z,26.60
2022-08-23T08:12:27.191Z,27.20
2022-08-23T08:13:26.198Z,25.40
2022-08-23T08:14:26.173Z,28.20
2022-08-23T08:15:26.217Z,28.20
2022-08-23T08:16:26.209Z,22.50
2022-08-23T08:17:27.604Z,36.80
2022-08-23T08:18:26.148Z,50.80
2022-08-23T08:19:26.111Z,42.30
2022-08-23T08:20:26.151Z,33.60
2022-08-23T08:21:26.092Z,25.80
2022-08-23T08:22:26.107Z,27.30
2022-08-23T08:23:26.086Z,46.90
2022-08-23T08:24:26.076Z,24.40
2022-08-23T08:25:26.106Z,37.60
2022-08-23T08:26:26.060Z,44.40
2022-08-23T08:27:26.047Z,49.60
2022-08-23T08:28:26.013Z,48.40
2022-08-23T08:29:25.998Z,43.60
2022-08-23T08:30:26.201Z,53.10
2022-08-23T08:31:27.342Z,57.70
2022-08-23T08:32:25.981Z,55.00
2022-08-23T08:33:30.860Z,57.40
2022-08-23T08:34:26.970Z,50.30
2022-08-23T08:35:25.997Z,47.50
2022-08-23T08:36:25.962Z,50.30
2022-08-23T08:37:25.909Z,37.30
2022-08-23T08:38:27.123Z,39.70
2022-08-23T08:39:25.897Z,34.90
2022-08-23T08:40:25.929Z,30.70
2022-08-23T08:41:25.904Z,30.10
2022-08-23T08:42:25.870Z,36.50
2022-08-23T08:43:25.850Z,29.60
2022-08-23T08:44:25.842Z,38.40
2022-08-23T08:45:26.411Z,33.20
2022-08-23T08:46:26.003Z,40.20
2022-08-23T08:47:25.796Z,45.30
2022-08-23T08:48:25.795Z,55.20
2022-08-23T08:49:25.777Z,63.80
2022-08-23T08:50:25.753Z,54.60
2022-08-23T08:51:25.812Z,38.20
2022-08-23T08:52:25.750Z,35.40
2022-08-23T08:53:25.733Z,32.60
2022-08-23T08:54:25.724Z,24.50
2022-08-23T08:55:25.703Z,29.40
2022-08-23T08:56:32.138Z,27.70
2022-08-23T08:57:27.754Z,26.50
2022-08-23T08:58:25.700Z,21.00
2022-08-23T08:59:25.661Z,23.10
2022-08-23T09:00:25.687Z,19.20
2022-08-23T09:01:25.785Z,19.20
2022-08-23T09:02:33.183Z,21.90
2022-08-23T09:03:26.663Z,19.20
2022-08-23T09:04:25.660Z,18.80
2022-08-23T09:05:25.596Z,19.90
2022-08-23T09:06:25.659Z,18.80
2022-08-23T09:07:30.519Z,20.10
2022-08-23T09:08:26.575Z,16.40
2022-08-23T09:09:25.570Z,22.20
2022-08-23T09:10:25.556Z,20.40
2022-08-23T09:11:25.565Z,20.90
2022-08-23T09:12:25.569Z,29.60
2022-08-23T09:13:25.539Z,27.80
2022-08-23T09:14:25.504Z,32.90
2022-08-23T09:15:25.467Z,31.90
2022-08-23T09:16:25.501Z,33.10
2022-08-23T09:17:25.468Z,33.20
2022-08-23T09:18:25.470Z,31.30
2022-08-23T09:19:25.446Z,28.40
2022-08-23T09:20:26.114Z,23.20
2022-08-23T09:21:28.384Z,24.80
2022-08-23T09:22:25.396Z,28.60
2022-08-23T09:23:25.410Z,29.70
2022-08-23T09:24:25.387Z,32.30
2022-08-23T09:25:25.410Z,33.30
2022-08-23T09:26:25.373Z,28.10
2022-08-23T09:27:25.376Z,23.00
2022-08-23T09:28:25.367Z,20.20
2022-08-23T09:29:25.317Z,21.90
2022-08-23T09:30:25.402Z,19.20
2022-08-23T09:31:25.320Z,22.00
2022-08-23T09:32:25.303Z,23.50
2022-08-23T09:33:26.303Z,23.10
2022-08-23T09:34:25.277Z,25.30
2022-08-23T09:35:25.303Z,27.30
2022-08-23T09:36:25.235Z,29.00
2022-08-23T09:37:25.243Z,32.50
2022-08-23T09:38:25.254Z,38.20
2022-08-23T09:39:30.678Z,37.20
2022-08-23T09:40:26.261Z,41.90
2022-08-23T09:41:25.207Z,44.50
2022-08-23T09:42:25.196Z,43.00
2022-08-23T09:43:25.154Z,40.00
2022-08-23T09:44:25.141Z,32.40
2022-08-23T09:45:26.496Z,34.20
2022-08-23T09:46:25.161Z,30.10
2022-08-23T09:47:25.130Z,26.20
2022-08-23T09:48:28.160Z,29.40
2022-08-23T09:49:26.112Z,33.40
2022-08-23T09:50:25.151Z,33.30
2022-08-23T09:51:25.295Z,37.10
2022-08-23T09:52:25.055Z,45.30
2022-08-23T09:53:25.067Z,43.10
2022-08-23T09:54:25.056Z,44.40
2022-08-23T09:55:25.075Z,46.20
2022-08-23T09:56:25.030Z,40.10
2022-08-23T09:57:25.036Z,33.00
2022-08-23T09:58:25.012Z,32.30
2022-08-23T09:59:26.442Z,29.00
2022-08-23T10:00:25.022Z,20.30
2022-08-23T10:01:25.022Z,27.10
2022-08-23T10:02:24.959Z,28.40
2022-08-23T10:03:24.940Z,23.80
2022-08-23T10:04:25.043Z,28.30
2022-08-23T10:05:24.964Z,26.30
2022-08-23T10:06:24.917Z,23.70
2022-08-23T10:07:25.911Z,21.20
2022-08-23T10:08:24.892Z,23.70
2022-08-23T10:09:24.889Z,25.90
2022-08-23T10:10:24.945Z,27.70
2022-08-23T10:11:24.861Z,29.40
2022-08-23T10:12:24.830Z,34.90
2022-08-23T10:13:24.802Z,37.80
2022-08-23T10:14:25.919Z,32.20
2022-08-23T10:15:24.856Z,27.50
2022-08-23T10:16:24.845Z,23.40
2022-08-23T10:17:24.790Z,23.80
2022-08-23T10:18:24.782Z,26.60
2022-08-23T10:19:24.773Z,24.60
2022-08-23T10:20:24.810Z,27.20
2022-08-23T10:21:24.734Z,27.30
2022-08-23T10:22:24.757Z,26.80
2022-08-23T10:23:24.722Z,27.10
2022-08-23T10:24:24.729Z,27.10
2022-08-23T10:25:24.758Z,23.50
2022-08-23T10:26:24.687Z,22.60
2022-08-23T10:27:24.706Z,23.00
2022-08-23T10:28:24.677Z,21.20
2022-08-23T10:29:24.667Z,24.90
2022-08-23T10:30:24.688Z,19.60
2022-08-23T10:31:24.652Z,23.30
2022-08-23T10:32:24.645Z,25.70
2022-08-23T10:33:24.598Z,27.50
2022-08-23T10:34:24.622Z,25.40
2022-08-23T10:35:24.656Z,20.00
2022-08-23T10:36:24.573Z,25.30
2022-08-23T10:37:24.578Z,25.30
2022-08-23T10:38:24.538Z,27.60
2022-08-23T10:39:24.558Z,25.00
2022-08-23T10:40:24.648Z,23.90
2022-08-23T10:41:24.504Z,19.40
2022-08-23T10:42:24.503Z,23.70
2022-08-23T10:43:24.524Z,23.70
2022-08-23T10:44:24.498Z,25.40
2022-08-23T10:45:24.515Z,25.00
2022-08-23T10:46:24.501Z,24.90
2022-08-23T10:47:24.444Z,23.50
2022-08-23T10:48:24.446Z,24.50
2022-08-23T10:49:24.430Z,22.90
2022-08-23T10:50:24.467Z,22.70
2022-08-23T10:51:31.267Z,21.20
2022-08-23T10:52:25.372Z,23.90
2022-08-23T10:53:24.353Z,22.40
2022-08-23T10:54:24.377Z,31.40
2022-08-23T10:55:24.408Z,33.70
2022-08-23T10:56:24.357Z,38.40
2022-08-23T10:57:24.337Z,35.70
2022-08-23T10:58:24.323Z,31.30
2022-08-23T10:59:24.349Z,17.50
2022-08-23T11:00:24.332Z,12.60
2022-08-23T11:01:24.319Z,12.20
2022-08-23T11:02:24.305Z,14.30
2022-08-23T11:03:28.682Z,16.50
2022-08-23T11:04:24.295Z,19.10
2022-08-23T11:05:24.310Z,18.30
2022-08-23T11:06:24.258Z,17.40
2022-08-23T11:07:24.244Z,19.80
2022-08-23T11:08:24.219Z,20.80
2022-08-23T11:09:25.871Z,22.00
2022-08-23T11:10:24.238Z,16.50
2022-08-23T11:11:24.159Z,17.70
2022-08-23T11:12:24.178Z,14.40
2022-08-23T11:13:24.178Z,15.10
2022-08-23T11:14:24.151Z,18.80
2022-08-23T11:15:24.196Z,28.20
2022-08-23T11:16:24.125Z,32.70
2022-08-23T11:17:24.124Z,28.90
2022-08-23T11:18:24.105Z,23.10
2022-08-23T11:19:24.083Z,20.80
2022-08-23T11:20:24.117Z,24.90
2022-08-23T11:21:24.053Z,26.40
2022-08-23T11:22:24.066Z,29.20
2022-08-23T11:23:24.046Z,33.70
2022-08-23T11:24:24.026Z,36.00
2022-08-23T11:25:24.098Z,40.50
2022-08-23T11:26:24.010Z,38.40
2022-08-23T11:27:24.017Z,35.30
2022-08-23T11:28:24.008Z,36.10
2022-08-23T11:29:24.008Z,37.50
2022-08-23T11:30:24.000Z,40.30
2022-08-23T11:31:23.985Z,39.70
2022-08-23T11:32:26.934Z,37.00
2022-08-23T11:33:24.947Z,37.30
2022-08-23T11:34:27.276Z,36.60
2022-08-23T11:35:24.965Z,33.00
2022-08-23T11:36:23.907Z,29.10
2022-08-23T11:37:23.891Z,34.30
2022-08-23T11:38:27.114Z,30.50
2022-08-23T11:39:25.533Z,29.80
2022-08-23T11:40:23.984Z,34.50
2022-08-23T11:41:23.836Z,30.00
2022-08-23T11:42:23.836Z,33.50
2022-08-23T11:43:23.813Z,32.90
2022-08-23T11:44:23.812Z,34.50
2022-08-23T11:45:23.857Z,32.60
2022-08-23T11:46:23.805Z,38.30
2022-08-23T11:47:23.794Z,37.00
2022-08-23T11:48:23.777Z,43.70
2022-08-23T11:49:23.741Z,40.00
2022-08-23T11:50:23.772Z,39.90
2022-08-23T11:51:23.721Z,34.00
2022-08-23T11:52:23.704Z,32.40
2022-08-23T11:53:23.731Z,34.60
2022-08-23T11:54:23.681Z,36.50
2022-08-23T11:55:24.301Z,37.80
2022-08-23T11:56:23.665Z,32.70
2022-08-23T11:57:23.657Z,34.80
2022-08-23T11:58:23.662Z,29.00
2022-08-23T11:59:23.814Z,33.90
2022-08-23T12:00:27.733Z,50.90
2022-08-23T12:01:24.624Z,32.40
2022-08-23T12:02:23.687Z,19.60
2022-08-23T12:03:23.709Z,15.60
2022-08-23T12:04:23.590Z,14.70
2022-08-23T12:05:23.640Z,18.10
2022-08-23T12:06:23.541Z,23.20
2022-08-23T12:07:23.532Z,27.00
2022-08-23T12:08:23.514Z,27.20
2022-08-23T12:09:23.539Z,25.90
2022-08-23T12:10:23.574Z,27.30
2022-08-23T12:11:23.532Z,29.50
2022-08-23T12:12:23.475Z,29.00
2022-08-23T12:13:23.478Z,29.50
2022-08-23T12:14:23.454Z,29.90
2022-08-23T12:15:23.513Z,30.00
2022-08-23T12:16:23.514Z,30.40
2022-08-23T12:17:23.447Z,28.70
2022-08-23T12:18:25.097Z,30.20
2022-08-23T12:19:23.411Z,30.20
2022-08-23T12:20:24.316Z,30.20
2022-08-23T12:21:23.385Z,30.70
2022-08-23T12:22:23.393Z,31.70
2022-08-23T12:23:23.369Z,27.80
2022-08-23T12:24:23.350Z,26.40
2022-08-23T12:25:23.391Z,29.20
2022-08-23T12:26:23.332Z,28.30
2022-08-23T12:27:23.325Z,24.50
2022-08-23T12:28:23.294Z,25.90
2022-08-23T12:29:23.304Z,21.80
2022-08-23T12:30:23.362Z,19.70
2022-08-23T12:31:23.341Z,18.00
2022-08-23T12:32:23.918Z,17.50
2022-08-23T12:33:23.262Z,16.80
2022-08-23T12:34:23.255Z,17.50
2022-08-23T12:35:23.271Z,18.80
2022-08-23T12:36:23.203Z,17.30
2022-08-23T12:37:23.190Z,17.70
2022-08-23T12:38:23.182Z,18.20
2022-08-23T12:39:23.221Z,18.00
2022-08-23T12:40:23.255Z,17.80